sensor_id;sensor_type;location;lat;lon;timestamp;P1;durP1;ratioP1;P2;durP2;ratioP2
62037;SDS011;47991;42.974;12.082;2023-05-06T00:00:33;8.10;;;4.40;;
62037;SDS011;47991;42.974;12.082;2023-05-06T00:03:12;8.50;;;4.20;;
62037;SDS011;47991;42.974;12.082;2023-05-06T00:05:54;8.70;;;4.40;;
62037;SDS011;47991;42.974;12.082;2023-05-06T00:08:21;9.70;;;4.50;;
62037;SDS011;47991;42.974;12.082;2023-05-06T00:10:48;8.70;;;4.20;;
62037;SDS011;47991;42.974;12.082;2023-05-06T00:13:14;9.80;;;4.50;;
62037;SDS011;47991;42.974;12.082;2023-05-06T00:15:41;8.10;;;4.40;;
62037;SDS011;47991;42.974;12.082;2023-05-06T00:18:22;9.80;;;4.30;;
62037;SDS011;47991;42.974;12.082;2023-05-06T00:20:49;8.90;;;4.80;;
62037;SDS011;47991;42.974;12.082;2023-05-06T00:23:30;8.20;;;4.30;;
62037;SDS011;47991;42.974;12.082;2023-05-06T00:25:58;9.10;;;4.00;;
62037;SDS011;47991;42.974;12.082;2023-05-06T00:28:24;9.40;;;4.30;;
62037;SDS011;47991;42.974;12.082;2023-05-06T00:31:05;8.30;;;4.10;;
62037;SDS011;47991;42.974;12.082;2023-05-06T00:33:32;9.00;;;4.40;;
62037;SDS011;47991;42.974;12.082;2023-05-06T00:35:59;8.40;;;4.40;;
62037;SDS011;47991;42.974;12.082;2023-05-06T00:38:26;8.20;;;3.70;;
62037;SDS011;47991;42.974;12.082;2023-05-06T00:41:07;8.30;;;4.20;;
62037;SDS011;47991;42.974;12.082;2023-05-06T00:43:34;8.20;;;4.30;;
62037;SDS011;47991;42.974;12.082;2023-05-06T00:46:15;7.90;;;3.80;;
62037;SDS011;47991;42.974;12.082;2023-05-06T00:48:56;9.40;;;4.10;;
62037;SDS011;47991;42.974;12.082;2023-05-06T00:51:24;9.40;;;4.50;;
62037;SDS011;47991;42.974;12.082;2023-05-06T00:53:52;8.20;;;4.10;;
62037;SDS011;47991;42.974;12.082;2023-05-06T00:56:18;8.50;;;4.20;;
62037;SDS011;47991;42.974;12.082;2023-05-06T00:58:46;7.40;;;3.80;;
62037;SDS011;47991;42.974;12.082;2023-05-06T01:01:13;7.40;;;4.00;;
62037;SDS011;47991;42.974;12.082;2023-05-06T01:03:40;8.70;;;4.40;;
62037;SDS011;47991;42.974;12.082;2023-05-06T01:09:41;7.80;;;3.70;;
62037;SDS011;47991;42.974;12.082;2023-05-06T01:17:49;7.80;;;4.00;;
62037;SDS011;47991;42.974;12.082;2023-05-06T01:20:20;6.80;;;3.70;;
62037;SDS011;47991;42.974;12.082;2023-05-06T01:22:48;8.30;;;4.20;;
62037;SDS011;47991;42.974;12.082;2023-05-06T01:25:19;7.40;;;3.70;;
62037;SDS011;47991;42.974;12.082;2023-05-06T01:27:47;7.70;;;3.70;;
62037;SDS011;47991;42.974;12.082;2023-05-06T01:30:30;7.20;;;3.50;;
62037;SDS011;47991;42.974;12.082;2023-05-06T01:36:18;7.50;;;3.90;;
62037;SDS011;47991;42.974;12.082;2023-05-06T01:39:25;7.10;;;3.80;;
62037;SDS011;47991;42.974;12.082;2023-05-06T01:42:05;7.40;;;3.80;;
62037;SDS011;47991;42.974;12.082;2023-05-06T01:44:48;6.80;;;3.60;;
62037;SDS011;47991;42.974;12.082;2023-05-06T01:47:30;6.90;;;3.80;;
62037;SDS011;47991;42.974;12.082;2023-05-06T01:49:59;7.50;;;4.30;;
62037;SDS011;47991;42.974;12.082;2023-05-06T01:52:41;7.30;;;3.90;;
62037;SDS011;47991;42.974;12.082;2023-05-06T01:55:22;7.70;;;3.80;;
62037;SDS011;47991;42.974;12.082;2023-05-06T01:58:03;7.40;;;3.70;;
62037;SDS011;47991;42.974;12.082;2023-05-06T02:00:44;7.30;;;3.60;;
62037;SDS011;47991;42.974;12.082;2023-05-06T02:03:25;7.60;;;3.70;;
62037;SDS011;47991;42.974;12.082;2023-05-06T02:05:53;6.50;;;3.50;;
62037;SDS011;47991;42.974;12.082;2023-05-06T02:08:19;7.10;;;3.30;;
62037;SDS011;47991;42.974;12.082;2023-05-06T02:10:46;6.90;;;3.50;;
62037;SDS011;47991;42.974;12.082;2023-05-06T02:13:27;7.40;;;3.40;;
62037;SDS011;47991;42.974;12.082;2023-05-06T02:16:07;6.50;;;3.30;;
62037;SDS011;47991;42.974;12.082;2023-05-06T02:18:34;7.00;;;3.70;;
62037;SDS011;47991;42.974;12.082;2023-05-06T02:21:01;7.70;;;3.80;;
62037;SDS011;47991;42.974;12.082;2023-05-06T02:23:42;6.60;;;3.50;;
62037;SDS011;47991;42.974;12.082;2023-05-06T02:26:10;6.20;;;3.50;;
62037;SDS011;47991;42.974;12.082;2023-05-06T02:28:51;6.90;;;3.20;;
62037;SDS011;47991;42.974;12.082;2023-05-06T02:31:18;8.50;;;3.40;;
62037;SDS011;47991;42.974;12.082;2023-05-06T02:33:59;8.20;;;3.80;;
62037;SDS011;47991;42.974;12.082;2023-05-06T02:36:26;6.90;;;3.40;;
62037;SDS011;47991;42.974;12.082;2023-05-06T02:39:07;6.90;;;3.60;;
62037;SDS011;47991;42.974;12.082;2023-05-06T02:41:48;6.50;;;3.30;;
62037;SDS011;47991;42.974;12.082;2023-05-06T02:44:28;6.80;;;3.30;;
62037;SDS011;47991;42.974;12.082;2023-05-06T02:46:55;6.70;;;3.60;;
62037;SDS011;47991;42.974;12.082;2023-05-06T02:49:24;7.80;;;4.20;;
62037;SDS011;47991;42.974;12.082;2023-05-06T02:52:04;6.90;;;3.50;;
62037;SDS011;47991;42.974;12.082;2023-05-06T02:54:31;6.80;;;3.70;;
62037;SDS011;47991;42.974;12.082;2023-05-06T02:57:14;5.80;;;3.00;;
62037;SDS011;47991;42.974;12.082;2023-05-06T02:59:41;6.30;;;3.60;;
62037;SDS011;47991;42.974;12.082;2023-05-06T03:02:22;7.90;;;3.70;;
62037;SDS011;47991;42.974;12.082;2023-05-06T03:04:49;7.80;;;3.90;;
62037;SDS011;47991;42.974;12.082;2023-05-06T03:07:17;6.70;;;3.40;;
62037;SDS011;47991;42.974;12.082;2023-05-06T03:09:44;6.20;;;3.40;;
62037;SDS011;47991;42.974;12.082;2023-05-06T03:12:24;6.60;;;3.30;;
62037;SDS011;47991;42.974;12.082;2023-05-06T03:15:07;6.30;;;3.40;;
62037;SDS011;47991;42.974;12.082;2023-05-06T03:17:34;6.90;;;3.70;;
62037;SDS011;47991;42.974;12.082;2023-05-06T03:20:01;6.60;;;3.50;;
62037;SDS011;47991;42.974;12.082;2023-05-06T03:22:43;6.50;;;3.10;;
62037;SDS011;47991;42.974;12.082;2023-05-06T03:25:10;6.10;;;3.40;;
62037;SDS011;47991;42.974;12.082;2023-05-06T03:27:51;7.10;;;3.60;;
62037;SDS011;47991;42.974;12.082;2023-05-06T03:30:18;6.90;;;3.50;;
62037;SDS011;47991;42.974;12.082;2023-05-06T03:33:07;6.80;;;3.30;;
62037;SDS011;47991;42.974;12.082;2023-05-06T03:35:34;6.80;;;3.60;;
62037;SDS011;47991;42.974;12.082;2023-05-06T03:38:01;6.50;;;3.20;;
62037;SDS011;47991;42.974;12.082;2023-05-06T03:40:42;6.40;;;3.20;;
62037;SDS011;47991;42.974;12.082;2023-05-06T03:43:09;6.20;;;3.40;;
62037;SDS011;47991;42.974;12.082;2023-05-06T03:45:36;7.20;;;3.60;;
62037;SDS011;47991;42.974;12.082;2023-05-06T03:48:04;5.50;;;2.90;;
62037;SDS011;47991;42.974;12.082;2023-05-06T03:50:32;6.60;;;3.30;;
62037;SDS011;47991;42.974;12.082;2023-05-06T03:52:58;6.70;;;3.60;;
62037;SDS011;47991;42.974;12.082;2023-05-06T03:55:25;6.80;;;3.30;;
62037;SDS011;47991;42.974;12.082;2023-05-06T03:58:06;6.70;;;3.10;;
62037;SDS011;47991;42.974;12.082;2023-05-06T04:00:48;7.70;;;3.60;;
62037;SDS011;47991;42.974;12.082;2023-05-06T04:09:01;7.40;;;3.50;;
62037;SDS011;47991;42.974;12.082;2023-05-06T04:11:31;6.40;;;3.40;;
62037;SDS011;47991;42.974;12.082;2023-05-06T04:13:58;7.80;;;3.70;;
62037;SDS011;47991;42.974;12.082;2023-05-06T04:16:38;5.70;;;2.80;;
62037;SDS011;47991;42.974;12.082;2023-05-06T04:19:20;5.70;;;3.20;;
62037;SDS011;47991;42.974;12.082;2023-05-06T04:22:01;6.20;;;3.40;;
62037;SDS011;47991;42.974;12.082;2023-05-06T04:24:28;6.30;;;3.20;;
62037;SDS011;47991;42.974;12.082;2023-05-06T04:27:10;6.20;;;3.00;;
62037;SDS011;47991;42.974;12.082;2023-05-06T04:29:37;7.00;;;3.00;;
62037;SDS011;47991;42.974;12.082;2023-05-06T04:32:04;5.80;;;2.80;;
62037;SDS011;47991;42.974;12.082;2023-05-06T04:34:45;6.70;;;2.90;;
62037;SDS011;47991;42.974;12.082;2023-05-06T04:37:12;5.10;;;2.60;;
62037;SDS011;47991;42.974;12.082;2023-05-06T04:39:53;5.50;;;2.90;;
62037;SDS011;47991;42.974;12.082;2023-05-06T04:42:21;5.70;;;2.70;;
62037;SDS011;47991;42.974;12.082;2023-05-06T04:44:48;6.10;;;2.80;;
62037;SDS011;47991;42.974;12.082;2023-05-06T04:47:29;5.40;;;2.70;;
62037;SDS011;47991;42.974;12.082;2023-05-06T04:50:10;5.80;;;2.50;;
62037;SDS011;47991;42.974;12.082;2023-05-06T04:52:37;5.40;;;2.90;;
62037;SDS011;47991;42.974;12.082;2023-05-06T04:55:18;6.30;;;3.10;;
62037;SDS011;47991;42.974;12.082;2023-05-06T04:57:58;5.40;;;2.80;;
62037;SDS011;47991;42.974;12.082;2023-05-06T05:00:26;6.10;;;2.80;;
62037;SDS011;47991;42.974;12.082;2023-05-06T05:03:07;6.00;;;3.00;;
62037;SDS011;47991;42.974;12.082;2023-05-06T05:05:47;5.40;;;2.80;;
62037;SDS011;47991;42.974;12.082;2023-05-06T05:08:28;5.90;;;2.80;;
62037;SDS011;47991;42.974;12.082;2023-05-06T05:10:55;5.40;;;2.90;;
62037;SDS011;47991;42.974;12.082;2023-05-06T05:13:36;5.10;;;2.70;;
62037;SDS011;47991;42.974;12.082;2023-05-06T05:16:17;5.40;;;2.60;;
62037;SDS011;47991;42.974;12.082;2023-05-06T05:18:57;4.70;;;2.70;;
62037;SDS011;47991;42.974;12.082;2023-05-06T05:21:24;4.80;;;2.70;;
62037;SDS011;47991;42.974;12.082;2023-05-06T05:24:06;5.20;;;2.70;;
62037;SDS011;47991;42.974;12.082;2023-05-06T05:26:47;5.90;;;2.80;;
62037;SDS011;47991;42.974;12.082;2023-05-06T05:29:14;5.50;;;2.60;;
62037;SDS011;47991;42.974;12.082;2023-05-06T05:31:54;4.60;;;2.60;;
62037;SDS011;47991;42.974;12.082;2023-05-06T05:34:35;5.20;;;2.70;;
62037;SDS011;47991;42.974;12.082;2023-05-06T05:37:02;6.30;;;2.60;;
62037;SDS011;47991;42.974;12.082;2023-05-06T05:39:30;5.80;;;2.90;;
62037;SDS011;47991;42.974;12.082;2023-05-06T05:42:11;5.00;;;2.70;;
62037;SDS011;47991;42.974;12.082;2023-05-06T05:44:37;5.40;;;2.70;;
62037;SDS011;47991;42.974;12.082;2023-05-06T05:47:04;7.20;;;2.70;;
62037;SDS011;47991;42.974;12.082;2023-05-06T05:49:31;4.90;;;2.50;;
62037;SDS011;47991;42.974;12.082;2023-05-06T05:52:12;5.50;;;2.60;;
62037;SDS011;47991;42.974;12.082;2023-05-06T05:54:52;4.30;;;2.40;;
62037;SDS011;47991;42.974;12.082;2023-05-06T05:57:33;5.90;;;2.80;;
62037;SDS011;47991;42.974;12.082;2023-05-06T06:00:13;4.30;;;2.30;;
62037;SDS011;47991;42.974;12.082;2023-05-06T06:02:40;5.40;;;2.30;;
62037;SDS011;47991;42.974;12.082;2023-05-06T06:05:07;5.30;;;2.50;;
62037;SDS011;47991;42.974;12.082;2023-05-06T06:07:33;4.10;;;2.30;;
62037;SDS011;47991;42.974;12.082;2023-05-06T06:10:14;4.40;;;2.40;;
62037;SDS011;47991;42.974;12.082;2023-05-06T06:12:55;4.80;;;2.60;;
62037;SDS011;47991;42.974;12.082;2023-05-06T06:15:35;4.70;;;2.40;;
62037;SDS011;47991;42.974;12.082;2023-05-06T06:18:16;4.90;;;2.50;;
62037;SDS011;47991;42.974;12.082;2023-05-06T06:20:42;7.70;;;2.70;;
62037;SDS011;47991;42.974;12.082;2023-05-06T06:23:23;4.30;;;2.40;;
62037;SDS011;47991;42.974;12.082;2023-05-06T06:25:49;4.70;;;2.30;;
62037;SDS011;47991;42.974;12.082;2023-05-06T06:28:16;5.10;;;2.50;;
62037;SDS011;47991;42.974;12.082;2023-05-06T06:30:43;3.50;;;2.00;;
62037;SDS011;47991;42.974;12.082;2023-05-06T06:33:24;3.70;;;2.20;;
62037;SDS011;47991;42.974;12.082;2023-05-06T06:35:50;5.10;;;2.50;;
62037;SDS011;47991;42.974;12.082;2023-05-06T06:38:31;4.90;;;2.20;;
62037;SDS011;47991;42.974;12.082;2023-05-06T06:41:12;5.10;;;2.20;;
62037;SDS011;47991;42.974;12.082;2023-05-06T06:43:52;4.50;;;2.30;;
62037;SDS011;47991;42.974;12.082;2023-05-06T06:46:33;6.40;;;2.40;;
62037;SDS011;47991;42.974;12.082;2023-05-06T06:49:13;4.00;;;2.20;;
62037;SDS011;47991;42.974;12.082;2023-05-06T06:51:40;4.10;;;2.30;;
62037;SDS011;47991;42.974;12.082;2023-05-06T06:54:06;5.30;;;2.40;;
62037;SDS011;47991;42.974;12.082;2023-05-06T06:57:05;3.60;;;2.00;;
62037;SDS011;47991;42.974;12.082;2023-05-06T06:59:32;3.80;;;1.90;;
62037;SDS011;47991;42.974;12.082;2023-05-06T07:01:59;3.60;;;2.20;;
62037;SDS011;47991;42.974;12.082;2023-05-06T07:04:40;4.70;;;2.10;;
62037;SDS011;47991;42.974;12.082;2023-05-06T07:07:06;4.70;;;2.20;;
62037;SDS011;47991;42.974;12.082;2023-05-06T07:09:57;4.50;;;1.80;;
62037;SDS011;47991;42.974;12.082;2023-05-06T07:12:24;4.30;;;2.20;;
62037;SDS011;47991;42.974;12.082;2023-05-06T07:15:05;4.60;;;2.20;;
62037;SDS011;47991;42.974;12.082;2023-05-06T07:17:33;5.50;;;2.40;;
62037;SDS011;47991;42.974;12.082;2023-05-06T07:20:00;6.60;;;3.00;;
62037;SDS011;47991;42.974;12.082;2023-05-06T07:22:40;21.90;;;3.70;;
62037;SDS011;47991;42.974;12.082;2023-05-06T07:25:07;13.80;;;4.10;;
62037;SDS011;47991;42.974;12.082;2023-05-06T07:27:34;10.90;;;3.40;;
62037;SDS011;47991;42.974;12.082;2023-05-06T07:30:14;11.30;;;3.60;;
62037;SDS011;47991;42.974;12.082;2023-05-06T07:32:41;10.00;;;3.80;;
62037;SDS011;47991;42.974;12.082;2023-05-06T07:35:08;10.10;;;4.30;;
62037;SDS011;47991;42.974;12.082;2023-05-06T07:37:49;11.30;;;3.30;;
62037;SDS011;47991;42.974;12.082;2023-05-06T07:40:29;8.40;;;3.60;;
62037;SDS011;47991;42.974;12.082;2023-05-06T07:43:10;9.10;;;4.70;;
62037;SDS011;47991;42.974;12.082;2023-05-06T07:45:37;8.10;;;4.60;;
62037;SDS011;47991;42.974;12.082;2023-05-06T07:48:03;9.50;;;4.60;;
62037;SDS011;47991;42.974;12.082;2023-05-06T07:50:30;11.30;;;5.20;;
62037;SDS011;47991;42.974;12.082;2023-05-06T07:52:57;10.70;;;5.30;;
62037;SDS011;47991;42.974;12.082;2023-05-06T07:55:25;10.60;;;4.70;;
62037;SDS011;47991;42.974;12.082;2023-05-06T07:58:05;11.10;;;4.70;;
62037;SDS011;47991;42.974;12.082;2023-05-06T08:00:32;10.80;;;4.40;;
62037;SDS011;47991;42.974;12.082;2023-05-06T08:03:28;12.30;;;4.70;;
62037;SDS011;47991;42.974;12.082;2023-05-06T08:06:09;8.00;;;4.50;;
62037;SDS011;47991;42.974;12.082;2023-05-06T08:08:50;7.60;;;4.00;;
62037;SDS011;47991;42.974;12.082;2023-05-06T08:11:17;8.40;;;4.20;;
62037;SDS011;47991;42.974;12.082;2023-05-06T08:13:57;8.00;;;3.90;;
62037;SDS011;47991;42.974;12.082;2023-05-06T08:16:24;8.50;;;3.60;;
62037;SDS011;47991;42.974;12.082;2023-05-06T08:19:05;9.40;;;4.10;;
62037;SDS011;47991;42.974;12.082;2023-05-06T08:21:45;7.20;;;4.00;;
62037;SDS011;47991;42.974;12.082;2023-05-06T08:24:27;6.50;;;3.30;;
62037;SDS011;47991;42.974;12.082;2023-05-06T08:26:54;8.40;;;2.90;;
62037;SDS011;47991;42.974;12.082;2023-05-06T08:29:20;5.40;;;2.80;;
62037;SDS011;47991;42.974;12.082;2023-05-06T08:32:01;5.30;;;2.20;;
62037;SDS011;47991;42.974;12.082;2023-05-06T08:34:41;5.20;;;2.40;;
62037;SDS011;47991;42.974;12.082;2023-05-06T08:37:08;8.40;;;2.40;;
62037;SDS011;47991;42.974;12.082;2023-05-06T08:39:48;5.00;;;2.50;;
62037;SDS011;47991;42.974;12.082;2023-05-06T08:42:29;3.70;;;2.00;;
62037;SDS011;47991;42.974;12.082;2023-05-06T08:45:10;3.70;;;2.30;;
62037;SDS011;47991;42.974;12.082;2023-05-06T08:47:57;4.20;;;2.40;;
62037;SDS011;47991;42.974;12.082;2023-05-06T08:50:39;4.60;;;2.20;;
62037;SDS011;47991;42.974;12.082;2023-05-06T08:53:11;4.90;;;2.40;;
62037;SDS011;47991;42.974;12.082;2023-05-06T08:55:52;5.30;;;2.40;;
62037;SDS011;47991;42.974;12.082;2023-05-06T08:58:20;3.70;;;2.10;;
62037;SDS011;47991;42.974;12.082;2023-05-06T09:00:49;4.70;;;2.40;;
62037;SDS011;47991;42.974;12.082;2023-05-06T09:03:30;8.00;;;2.90;;
62037;SDS011;47991;42.974;12.082;2023-05-06T09:05:57;5.70;;;2.80;;
62037;SDS011;47991;42.974;12.082;2023-05-06T09:08:23;6.20;;;2.60;;
62037;SDS011;47991;42.974;12.082;2023-05-06T09:11:18;10.30;;;3.10;;
62037;SDS011;47991;42.974;12.082;2023-05-06T09:13:50;6.90;;;2.40;;
62037;SDS011;47991;42.974;12.082;2023-05-06T09:16:29;4.80;;;1.90;;
62037;SDS011;47991;42.974;12.082;2023-05-06T09:19:10;5.90;;;2.60;;
62037;SDS011;47991;42.974;12.082;2023-05-06T09:21:38;10.90;;;2.40;;
62037;SDS011;47991;42.974;12.082;2023-05-06T09:24:20;6.60;;;2.10;;
62037;SDS011;47991;42.974;12.082;2023-05-06T09:27:00;5.80;;;2.10;;
62037;SDS011;47991;42.974;12.082;2023-05-06T09:29:45;5.50;;;2.70;;
62037;SDS011;47991;42.974;12.082;2023-05-06T09:32:42;5.70;;;2.60;;
62037;SDS011;47991;42.974;12.082;2023-05-06T09:35:26;6.60;;;2.50;;
62037;SDS011;47991;42.974;12.082;2023-05-06T09:37:54;5.90;;;2.40;;
62037;SDS011;47991;42.974;12.082;2023-05-06T09:40:36;4.20;;;2.20;;
62037;SDS011;47991;42.974;12.082;2023-05-06T09:43:03;4.10;;;2.30;;
62037;SDS011;47991;42.974;12.082;2023-05-06T09:45:44;4.50;;;2.30;;
62037;SDS011;47991;42.974;12.082;2023-05-06T09:48:11;4.60;;;2.20;;
62037;SDS011;47991;42.974;12.082;2023-05-06T09:50:40;7.00;;;2.20;;
62037;SDS011;47991;42.974;12.082;2023-05-06T09:53:09;5.00;;;2.30;;
62037;SDS011;47991;42.974;12.082;2023-05-06T09:55:52;5.10;;;2.30;;
62037;SDS011;47991;42.974;12.082;2023-05-06T09:58:33;5.10;;;2.40;;
62037;SDS011;47991;42.974;12.082;2023-05-06T10:01:04;4.80;;;2.20;;
62037;SDS011;47991;42.974;12.082;2023-05-06T10:03:32;4.60;;;2.40;;
62037;SDS011;47991;42.974;12.082;2023-05-06T10:06:14;6.80;;;2.40;;
62037;SDS011;47991;42.974;12.082;2023-05-06T10:08:41;6.00;;;2.30;;
62037;SDS011;47991;42.974;12.082;2023-05-06T10:11:28;4.40;;;2.40;;
62037;SDS011;47991;42.974;12.082;2023-05-06T10:14:12;4.50;;;2.20;;
62037;SDS011;47991;42.974;12.082;2023-05-06T10:16:53;7.50;;;2.50;;
62037;SDS011;47991;42.974;12.082;2023-05-06T10:19:34;4.90;;;2.30;;
62037;SDS011;47991;42.974;12.082;2023-05-06T10:27:53;4.50;;;2.20;;
62037;SDS011;47991;42.974;12.082;2023-05-06T10:30:34;3.40;;;2.00;;
62037;SDS011;47991;42.974;12.082;2023-05-06T10:33:16;6.50;;;2.10;;
62037;SDS011;47991;42.974;12.082;2023-05-06T10:35:43;4.60;;;2.00;;
62037;SDS011;47991;42.974;12.082;2023-05-06T10:38:31;4.60;;;2.10;;
62037;SDS011;47991;42.974;12.082;2023-05-06T10:41:15;5.00;;;2.10;;
62037;SDS011;47991;42.974;12.082;2023-05-06T10:43:57;5.50;;;2.30;;
62037;SDS011;47991;42.974;12.082;2023-05-06T10:46:28;5.40;;;1.90;;
62037;SDS011;47991;42.974;12.082;2023-05-06T10:51:36;6.30;;;2.20;;
62037;SDS011;47991;42.974;12.082;2023-05-06T10:56:35;5.80;;;2.00;;
62037;SDS011;47991;42.974;12.082;2023-05-06T10:59:37;5.20;;;1.90;;
62037;SDS011;47991;42.974;12.082;2023-05-06T11:02:25;5.10;;;1.90;;
62037;SDS011;47991;42.974;12.082;2023-05-06T11:05:09;5.40;;;2.30;;
62037;SDS011;47991;42.974;12.082;2023-05-06T11:07:36;16.10;;;4.10;;
62037;SDS011;47991;42.974;12.082;2023-05-06T11:10:29;10.90;;;3.70;;
62037;SDS011;47991;42.974;12.082;2023-05-06T11:12:58;16.40;;;4.70;;
62037;SDS011;47991;42.974;12.082;2023-05-06T11:15:57;7.30;;;2.60;;
62037;SDS011;47991;42.974;12.082;2023-05-06T11:26:10;8.20;;;2.50;;
62037;SDS011;47991;42.974;12.082;2023-05-06T11:28:52;5.40;;;2.00;;
62037;SDS011;47991;42.974;12.082;2023-05-06T11:31:39;3.70;;;1.80;;
62037;SDS011;47991;42.974;12.082;2023-05-06T11:34:07;4.50;;;2.00;;
62037;SDS011;47991;42.974;12.082;2023-05-06T11:36:36;2.70;;;1.80;;
62037;SDS011;47991;42.974;12.082;2023-05-06T11:39:10;4.90;;;1.80;;
62037;SDS011;47991;42.974;12.082;2023-05-06T11:44:44;4.90;;;2.20;;
62037;SDS011;47991;42.974;12.082;2023-05-06T11:47:11;5.30;;;2.50;;
62037;SDS011;47991;42.974;12.082;2023-05-06T11:49:52;4.20;;;2.30;;
62037;SDS011;47991;42.974;12.082;2023-05-06T11:52:19;5.40;;;2.10;;
62037;SDS011;47991;42.974;12.082;2023-05-06T11:54:46;4.70;;;2.00;;
62037;SDS011;47991;42.974;12.082;2023-05-06T11:57:13;4.30;;;2.00;;
62037;SDS011;47991;42.974;12.082;2023-05-06T11:59:54;3.80;;;1.80;;
62037;SDS011;47991;42.974;12.082;2023-05-06T12:02:34;3.40;;;1.80;;
62037;SDS011;47991;42.974;12.082;2023-05-06T12:05:01;3.90;;;1.80;;
62037;SDS011;47991;42.974;12.082;2023-05-06T12:07:28;5.20;;;1.90;;
62037;SDS011;47991;42.974;12.082;2023-05-06T12:10:08;4.30;;;1.90;;
62037;SDS011;47991;42.974;12.082;2023-05-06T12:12:49;3.90;;;1.80;;
62037;SDS011;47991;42.974;12.082;2023-05-06T12:15:34;3.90;;;1.90;;
62037;SDS011;47991;42.974;12.082;2023-05-06T12:18:15;4.40;;;2.10;;
62037;SDS011;47991;42.974;12.082;2023-05-06T12:20:54;4.50;;;2.00;;
62037;SDS011;47991;42.974;12.082;2023-05-06T12:23:36;5.50;;;2.20;;
62037;SDS011;47991;42.974;12.082;2023-05-06T12:26:40;3.80;;;2.20;;
62037;SDS011;47991;42.974;12.082;2023-05-06T12:29:12;4.50;;;2.20;;
62037;SDS011;47991;42.974;12.082;2023-05-06T12:31:45;3.90;;;2.10;;
62037;SDS011;47991;42.974;12.082;2023-05-06T12:34:34;4.70;;;2.30;;
62037;SDS011;47991;42.974;12.082;2023-05-06T12:37:03;3.70;;;2.20;;
62037;SDS011;47991;42.974;12.082;2023-05-06T12:39:34;4.00;;;2.00;;
62037;SDS011;47991;42.974;12.082;2023-05-06T12:42:05;7.20;;;2.40;;
62037;SDS011;47991;42.974;12.082;2023-05-06T12:44:45;6.00;;;2.20;;
62037;SDS011;47991;42.974;12.082;2023-05-06T12:47:26;3.90;;;1.90;;
62037;SDS011;47991;42.974;12.082;2023-05-06T12:49:56;5.20;;;2.50;;
62037;SDS011;47991;42.974;12.082;2023-05-06T12:52:41;5.50;;;2.30;;
62037;SDS011;47991;42.974;12.082;2023-05-06T12:55:23;4.50;;;2.00;;
62037;SDS011;47991;42.974;12.082;2023-05-06T12:57:51;4.60;;;2.30;;
62037;SDS011;47991;42.974;12.082;2023-05-06T13:00:18;4.80;;;2.50;;
62037;SDS011;47991;42.974;12.082;2023-05-06T13:02:45;4.70;;;2.30;;
62037;SDS011;47991;42.974;12.082;2023-05-06T13:05:26;4.30;;;2.10;;
62037;SDS011;47991;42.974;12.082;2023-05-06T13:08:07;3.20;;;1.90;;
62037;SDS011;47991;42.974;12.082;2023-05-06T13:10:35;4.60;;;2.10;;
62037;SDS011;47991;42.974;12.082;2023-05-06T13:13:16;3.70;;;2.10;;
62037;SDS011;47991;42.974;12.082;2023-05-06T13:15:43;4.70;;;2.00;;
62037;SDS011;47991;42.974;12.082;2023-05-06T13:18:24;5.20;;;2.20;;
62037;SDS011;47991;42.974;12.082;2023-05-06T13:20:50;5.80;;;2.20;;
62037;SDS011;47991;42.974;12.082;2023-05-06T13:23:17;5.60;;;2.20;;
62037;SDS011;47991;42.974;12.082;2023-05-06T13:25:58;5.20;;;2.20;;
62037;SDS011;47991;42.974;12.082;2023-05-06T13:28:28;4.30;;;2.10;;
62037;SDS011;47991;42.974;12.082;2023-05-06T13:31:09;6.60;;;2.30;;
62037;SDS011;47991;42.974;12.082;2023-05-06T13:33:49;4.40;;;2.20;;
62037;SDS011;47991;42.974;12.082;2023-05-06T13:36:30;5.20;;;2.20;;
62037;SDS011;47991;42.974;12.082;2023-05-06T13:38:57;5.50;;;2.40;;
62037;SDS011;47991;42.974;12.082;2023-05-06T13:41:24;4.90;;;2.10;;
62037;SDS011;47991;42.974;12.082;2023-05-06T13:44:04;4.50;;;2.30;;
62037;SDS011;47991;42.974;12.082;2023-05-06T13:46:31;4.00;;;2.10;;
62037;SDS011;47991;42.974;12.082;2023-05-06T13:48:58;3.70;;;1.80;;
62037;SDS011;47991;42.974;12.082;2023-05-06T13:51:39;4.60;;;2.20;;
62037;SDS011;47991;42.974;12.082;2023-05-06T13:54:05;5.20;;;2.00;;
62037;SDS011;47991;42.974;12.082;2023-05-06T13:56:32;5.00;;;2.20;;
62037;SDS011;47991;42.974;12.082;2023-05-06T13:59:13;4.30;;;2.40;;
62037;SDS011;47991;42.974;12.082;2023-05-06T14:01:54;4.70;;;2.30;;
62037;SDS011;47991;42.974;12.082;2023-05-06T14:04:35;4.90;;;2.20;;
62037;SDS011;47991;42.974;12.082;2023-05-06T14:07:15;4.30;;;2.10;;
62037;SDS011;47991;42.974;12.082;2023-05-06T14:09:42;3.90;;;1.90;;
62037;SDS011;47991;42.974;12.082;2023-05-06T14:12:09;5.10;;;2.20;;
62037;SDS011;47991;42.974;12.082;2023-05-06T14:14:50;6.00;;;2.00;;
62037;SDS011;47991;42.974;12.082;2023-05-06T14:17:17;6.00;;;2.30;;
62037;SDS011;47991;42.974;12.082;2023-05-06T14:19:44;4.60;;;2.20;;
62037;SDS011;47991;42.974;12.082;2023-05-06T14:22:26;4.70;;;2.30;;
62037;SDS011;47991;42.974;12.082;2023-05-06T14:25:07;7.20;;;2.60;;
62037;SDS011;47991;42.974;12.082;2023-05-06T14:27:48;4.80;;;2.20;;
62037;SDS011;47991;42.974;12.082;2023-05-06T14:30:28;6.70;;;2.40;;
62037;SDS011;47991;42.974;12.082;2023-05-06T14:33:10;4.60;;;2.30;;
62037;SDS011;47991;42.974;12.082;2023-05-06T14:35:51;12.00;;;2.50;;
62037;SDS011;47991;42.974;12.082;2023-05-06T14:38:17;5.20;;;2.30;;
62037;SDS011;47991;42.974;12.082;2023-05-06T14:40:45;5.30;;;2.10;;
62037;SDS011;47991;42.974;12.082;2023-05-06T14:43:25;4.10;;;2.00;;
62037;SDS011;47991;42.974;12.082;2023-05-06T14:45:52;9.50;;;2.20;;
62037;SDS011;47991;42.974;12.082;2023-05-06T14:48:33;6.40;;;2.50;;
62037;SDS011;47991;42.974;12.082;2023-05-06T14:50:59;6.00;;;2.30;;
62037;SDS011;47991;42.974;12.082;2023-05-06T14:53:26;7.70;;;2.40;;
62037;SDS011;47991;42.974;12.082;2023-05-06T14:56:08;6.20;;;2.40;;
62037;SDS011;47991;42.974;12.082;2023-05-06T14:59:12;8.30;;;2.90;;
62037;SDS011;47991;42.974;12.082;2023-05-06T15:01:54;6.00;;;2.20;;
62037;SDS011;47991;42.974;12.082;2023-05-06T15:04:35;11.20;;;3.50;;
62037;SDS011;47991;42.974;12.082;2023-05-06T15:07:02;7.20;;;2.80;;
62037;SDS011;47991;42.974;12.082;2023-05-06T15:09:43;7.00;;;2.70;;
62037;SDS011;47991;42.974;12.082;2023-05-06T15:12:23;6.80;;;2.70;;
62037;SDS011;47991;42.974;12.082;2023-05-06T15:14:51;9.40;;;3.10;;
62037;SDS011;47991;42.974;12.082;2023-05-06T15:17:18;6.60;;;2.30;;
62037;SDS011;47991;42.974;12.082;2023-05-06T15:19:44;5.30;;;2.50;;
62037;SDS011;47991;42.974;12.082;2023-05-06T15:22:25;6.50;;;2.60;;
62037;SDS011;47991;42.974;12.082;2023-05-06T15:25:06;5.10;;;2.50;;
62037;SDS011;47991;42.974;12.082;2023-05-06T15:27:33;5.30;;;2.70;;
62037;SDS011;47991;42.974;12.082;2023-05-06T15:30:16;4.30;;;2.30;;
62037;SDS011;47991;42.974;12.082;2023-05-06T15:32:57;4.90;;;2.30;;
62037;SDS011;47991;42.974;12.082;2023-05-06T15:38:55;7.10;;;2.20;;
62037;SDS011;47991;42.974;12.082;2023-05-06T15:41:37;7.70;;;2.40;;
62037;SDS011;47991;42.974;12.082;2023-05-06T15:44:17;4.50;;;2.00;;
62037;SDS011;47991;42.974;12.082;2023-05-06T15:46:44;4.50;;;2.20;;
62037;SDS011;47991;42.974;12.082;2023-05-06T15:49:25;4.00;;;2.10;;
62037;SDS011;47991;42.974;12.082;2023-05-06T15:51:51;6.10;;;2.40;;
62037;SDS011;47991;42.974;12.082;2023-05-06T15:54:32;3.30;;;2.00;;
62037;SDS011;47991;42.974;12.082;2023-05-06T15:57:01;4.20;;;2.20;;
62037;SDS011;47991;42.974;12.082;2023-05-06T15:59:43;3.70;;;2.10;;
62037;SDS011;47991;42.974;12.082;2023-05-06T16:02:10;4.20;;;2.20;;